Time;durP1;ratioP1;P1;durP2;ratioP2;P2;SDS_P1;SDS_P2;PMS_P1;PMS_P2;Temp;Humidity;BMP_temperature;BMP_pressure;BME280_temperature;BME280_humidity;BME280_pressure;Samples;Min_cycle;Max_cycle;Signal;HPM_P1;HPM_P2
2023/09/14 00:01:12;;;;;;;10.40;7.13;;;;;;;;;;6288288;22;19995;-54
2023/09/14 00:03:40;;;;;;;19.85;9.40;;;;;;;;;;6287762;22;20050;-55
2023/09/14 00:06:07;;;;;;;11.60;8.65;;;;;;;;;;6287646;22;20058;-58
2023/09/14 00:08:34;;;;;;;99.40;90.60;;;;;;;;;;6287776;22;19995;-58
2023/09/14 00:11:03;;;;;;;28.42;22.75;;;;;;;;;;6287404;22;19998;-59
2023/09/14 00:13:30;;;;;;;20.63;12.98;;;;;;;;;;6287491;22;20000;-59
2023/09/14 00:15:57;;;;;;;19.30;10.27;;;;;;;;;;6287102;22;20007;-58
2023/09/14 00:18:23;;;;;;;292.13;269.50;;;;;;;;;;6288186;22;20187;-59
2023/09/14 00:20:52;;;;;;;47.35;42.33;;;;;;;;;;6287696;22;20008;-59
2023/09/14 00:23:20;;;;;;;19.02;17.25;;;;;;;;;;6286770;22;20000;-57
2023/09/14 00:25:47;;;;;;;24.77;11.13;;;;;;;;;;6285320;22;20000;-58
2023/09/14 00:28:13;;;;;;;12.02;8.85;;;;;;;;;;6286782;22;20283;-58
2023/09/14 00:30:40;;;;;;;14.40;7.90;;;;;;;;;;6287363;22;20283;-58
2023/09/14 00:33:08;;;;;;;17.02;13.68;;;;;;;;;;6287134;22;20075;-58
2023/09/14 00:35:34;;;;;;;15.95;9.18;;;;;;;;;;6287538;22;20165;-59
2023/09/14 00:38:01;;;;;;;7.72;6.50;;;;;;;;;;6287536;22;20039;-59
2023/09/14 00:40:29;;;;;;;7.68;5.65;;;;;;;;;;6286145;22;20004;-54
2023/09/14 00:42:56;;;;;;;9.90;5.05;;;;;;;;;;6286959;22;20027;-60
2023/09/14 00:45:23;;;;;;;5.88;4.47;;;;;;;;;;6286694;22;20003;-60
2023/09/14 00:47:54;;;;;;;10.35;5.22;;;;;;;;;;6286781;22;20235;-58
2023/09/14 00:50:21;;;;;;;8.10;5.07;;;;;;;;;;6287423;22;20000;-57
2023/09/14 00:52:50;;;;;;;7.55;5.38;;;;;;;;;;6286491;22;19994;-58
2023/09/14 00:55:18;;;;;;;10.98;5.85;;;;;;;;;;6285521;22;20037;-58
2023/09/14 00:57:45;;;;;;;9.00;5.88;;;;;;;;;;6286075;22;20002;-56
2023/09/14 01:00:12;;;;;;;7.45;4.97;;;;;;;;;;6287298;22;20004;-60
2023/09/14 01:02:42;;;;;;;5.38;4.50;;;;;;;;;;6287505;22;20011;-60
2023/09/14 01:05:09;;;;;;;6.18;4.10;;;;;;;;;;6288166;22;20004;-60
2023/09/14 01:07:36;;;;;;;7.18;4.32;;;;;;;;;;6286455;22;19991;-52
2023/09/14 01:10:04;;;;;;;32.22;5.60;;;;;;;;;;6286864;22;20061;-50
2023/09/14 01:12:32;;;;;;;8.70;6.00;;;;;;;;;;6288166;22;20019;-53
2023/09/14 01:14:59;;;;;;;9.88;6.97;;;;;;;;;;6287749;22;20000;-48
2023/09/14 01:17:31;;;;;;;13.07;7.70;;;;;;;;;;6287393;22;20014;-56
2023/09/14 01:20:04;;;;;;;14.15;5.70;;;;;;;;;;6287715;22;20023;-53
2023/09/14 01:22:43;;;;;;;10.57;4.13;;;;;;;;;;6287105;22;19988;-53
2023/09/14 01:25:18;;;;;;;5.90;4.05;;;;;;;;;;6287538;22;20183;-56
2023/09/14 01:27:44;;;;;;;12.23;3.60;;;;;;;;;;6285292;22;20246;-54
2023/09/14 01:30:11;;;;;;;7.28;3.85;;;;;;;;;;6287324;22;20012;-50
2023/09/14 01:32:38;;;;;;;8.13;3.63;;;;;;;;;;6286917;22;19999;-55
2023/09/14 01:35:05;;;;;;;7.07;3.35;;;;;;;;;;6287669;22;20000;-55
2023/09/14 01:37:33;;;;;;;7.47;3.90;;;;;;;;;;6287187;22;20029;-55
2023/09/14 01:40:00;;;;;;;9.35;4.60;;;;;;;;;;6286954;22;20320;-57
2023/09/14 01:42:27;;;;;;;18.45;10.50;;;;;;;;;;6286165;22;19991;-57
2023/09/14 01:44:54;;;;;;;17.50;9.32;;;;;;;;;;6287330;22;20163;-53
2023/09/14 01:47:20;;;;;;;13.95;7.35;;;;;;;;;;6285925;22;19988;-52
2023/09/14 01:49:49;;;;;;;17.02;8.80;;;;;;;;;;6286886;22;20022;-54
2023/09/14 01:52:15;;;;;;;22.15;9.10;;;;;;;;;;6287038;22;20015;-54
2023/09/14 01:54:42;;;;;;;18.02;9.25;;;;;;;;;;6285151;22;20023;-53
2023/09/14 01:57:09;;;;;;;20.83;12.10;;;;;;;;;;6286474;22;19996;-52
2023/09/14 01:59:35;;;;;;;31.77;16.02;;;;;;;;;;6285513;22;20012;-56
2023/09/14 02:02:02;;;;;;;28.92;13.38;;;;;;;;;;6287154;22;20003;-52
2023/09/14 02:04:29;;;;;;;21.25;11.05;;;;;;;;;;6286306;22;20226;-53
2023/09/14 02:06:56;;;;;;;18.25;10.32;;;;;;;;;;6286171;22;20474;-52
2023/09/14 02:09:23;;;;;;;18.25;10.07;;;;;;;;;;6286963;22;19995;-53
2023/09/14 02:11:50;;;;;;;15.00;9.05;;;;;;;;;;6286784;22;19992;-52
2023/09/14 02:14:16;;;;;;;16.20;8.32;;;;;;;;;;6287516;22;20045;-52
2023/09/14 02:16:43;;;;;;;13.68;7.20;;;;;;;;;;6286396;22;20003;-50
2023/09/14 02:19:10;;;;;;;11.23;6.97;;;;;;;;;;6286757;22;20239;-55
2023/09/14 02:21:36;;;;;;;12.15;6.45;;;;;;;;;;6285792;22;20049;-54
2023/09/14 02:24:03;;;;;;;9.02;5.70;;;;;;;;;;6287037;22;20070;-57
2023/09/14 02:26:30;;;;;;;10.98;6.93;;;;;;;;;;6286707;22;20415;-56
2023/09/14 02:28:57;;;;;;;20.27;17.42;;;;;;;;;;6286597;22;20027;-51
2023/09/14 02:31:25;;;;;;;15.13;10.70;;;;;;;;;;6286164;22;20038;-43
2023/09/14 02:33:53;;;;;;;14.55;7.55;;;;;;;;;;6286442;22;20011;-52
2023/09/14 02:36:21;;;;;;;12.27;6.93;;;;;;;;;;6286251;22;20004;-48
2023/09/14 02:38:48;;;;;;;11.35;5.72;;;;;;;;;;6286343;22;19992;-45
2023/09/14 02:41:14;;;;;;;10.15;5.47;;;;;;;;;;6286074;22;20037;-49
2023/09/14 02:43:41;;;;;;;15.45;5.55;;;;;;;;;;6286423;22;19996;-51
2023/09/14 02:46:08;;;;;;;9.27;4.90;;;;;;;;;;6286058;22;19992;-62
2023/09/14 02:48:37;;;;;;;13.68;5.03;;;;;;;;;;6287039;22;19987;-63
2023/09/14 02:51:03;;;;;;;9.77;5.47;;;;;;;;;;6286852;22;20194;-53
2023/09/14 02:53:30;;;;;;;14.60;5.32;;;;;;;;;;6287068;22;19988;-54
2023/09/14 02:55:57;;;;;;;24.63;20.70;;;;;;;;;;6286717;22;19998;-60
2023/09/14 02:58:24;;;;;;;17.17;14.13;;;;;;;;;;6286993;22;20056;-53
2023/09/14 03:00:50;;;;;;;23.80;11.70;;;;;;;;;;6286855;22;20003;-55
2023/09/14 03:03:17;;;;;;;15.10;10.60;;;;;;;;;;6286845;22;19984;-57
2023/09/14 03:05:44;;;;;;;15.30;9.18;;;;;;;;;;6286789;22;20517;-56
2023/09/14 03:08:10;;;;;;;9.00;7.25;;;;;;;;;;6286898;22;20048;-44
2023/09/14 03:10:37;;;;;;;25.48;7.30;;;;;;;;;;6286791;22;20000;-47
2023/09/14 03:13:04;;;;;;;9.55;6.28;;;;;;;;;;6286551;22;20006;-47
2023/09/14 03:15:34;;;;;;;16.40;11.48;;;;;;;;;;6286993;22;20179;-46
2023/09/14 03:18:01;;;;;;;35.35;22.98;;;;;;;;;;6286693;22;19995;-48
2023/09/14 03:20:28;;;;;;;51.70;32.72;;;;;;;;;;6286075;22;20000;-46
2023/09/14 03:22:55;;;;;;;43.55;27.20;;;;;;;;;;6286861;22;19991;-48
2023/09/14 03:25:21;;;;;;;192.63;38.53;;;;;;;;;;6288778;22;19987;-54
2023/09/14 03:27:49;;;;;;;95.95;32.90;;;;;;;;;;6288430;22;20007;-50
2023/09/14 03:30:15;;;;;;;69.65;33.55;;;;;;;;;;6288569;22;20003;-47
2023/09/14 03:32:42;;;;;;;44.42;21.35;;;;;;;;;;6288040;22;20283;-48
2023/09/14 03:35:09;;;;;;;33.55;17.88;;;;;;;;;;6286891;22;20341;-47
2023/09/14 03:37:36;;;;;;;35.15;14.65;;;;;;;;;;6287898;22;20015;-49
2023/09/14 03:40:05;;;;;;;23.63;14.13;;;;;;;;;;6288446;22;19991;-49
2023/09/14 03:42:31;;;;;;;22.20;11.02;;;;;;;;;;6288229;22;20010;-48
2023/09/14 03:44:58;;;;;;;18.77;9.65;;;;;;;;;;6288205;22;20212;-50
2023/09/14 03:47:25;;;;;;;19.17;7.78;;;;;;;;;;6288444;22;19992;-56
2023/09/14 03:49:51;;;;;;;11.77;7.10;;;;;;;;;;6288227;22;20007;-57
2023/09/14 03:52:18;;;;;;;10.25;6.55;;;;;;;;;;6288328;22;20044;-57
2023/09/14 03:54:45;;;;;;;15.68;6.40;;;;;;;;;;6261206;22;19999;-47
2023/09/14 03:57:14;;;;;;;10.32;6.13;;;;;;;;;;6287989;22;20000;-50
2023/09/14 03:59:42;;;;;;;7.40;5.30;;;;;;;;;;6288344;22;19992;-48
2023/09/14 04:02:09;;;;;;;8.15;4.82;;;;;;;;;;6288836;22;19987;-48
2023/09/14 04:04:36;;;;;;;7.22;4.55;;;;;;;;;;6288066;22;19999;-50
2023/09/14 04:07:03;;;;;;;6.63;4.63;;;;;;;;;;6288756;22;19999;-47
2023/09/14 04:09:29;;;;;;;8.15;4.47;;;;;;;;;;6288235;22;20022;-48
2023/09/14 04:11:56;;;;;;;8.70;4.20;;;;;;;;;;6288343;22;20006;-51
2023/09/14 04:14:23;;;;;;;7.07;4.32;;;;;;;;;;6287581;22;19996;-45
2023/09/14 04:16:51;;;;;;;6.32;3.65;;;;;;;;;;6288685;22;20041;-50
2023/09/14 04:19:18;;;;;;;5.78;3.40;;;;;;;;;;6287771;22;20010;-45
2023/09/14 04:21:45;;;;;;;8.15;3.60;;;;;;;;;;6288675;22;20012;-51
2023/09/14 04:24:12;;;;;;;7.00;3.83;;;;;;;;;;6288147;22;19999;-47
2023/09/14 04:26:39;;;;;;;7.57;3.42;;;;;;;;;;6288254;22;20000;-51
2023/09/14 04:29:05;;;;;;;7.50;3.70;;;;;;;;;;6288007;22;19995;-50
2023/09/14 04:31:32;;;;;;;7.05;3.90;;;;;;;;;;6287981;22;20004;-54
2023/09/14 04:33:59;;;;;;;5.15;3.80;;;;;;;;;;6287695;22;20004;-54
2023/09/14 04:36:25;;;;;;;5.65;3.17;;;;;;;;;;6288009;22;20007;-52
2023/09/14 04:38:53;;;;;;;6.80;3.65;;;;;;;;;;6287926;22;20397;-49
2023/09/14 04:41:20;;;;;;;11.00;3.42;;;;;;;;;;6288088;22;20012;-46
2023/09/14 04:43:46;;;;;;;6.22;3.90;;;;;;;;;;6287904;22;20016;-48
2023/09/14 04:46:13;;;;;;;8.43;3.83;;;;;;;;;;6288211;22;19991;-45
2023/09/14 04:48:41;;;;;;;5.65;3.70;;;;;;;;;;6287642;22;19999;-49
2023/09/14 04:51:08;;;;;;;7.75;3.70;;;;;;;;;;6288094;22;20023;-47
2023/09/14 04:53:35;;;;;;;9.90;3.30;;;;;;;;;;6287882;22;20038;-48
2023/09/14 04:56:03;;;;;;;4.22;3.15;;;;;;;;;;6287790;22;20294;-46
2023/09/14 04:58:31;;;;;;;14.10;4.05;;;;;;;;;;6287864;22;19992;-53
2023/09/14 05:00:58;;;;;;;5.88;3.90;;;;;;;;;;6287972;22;20018;-56
2023/09/14 05:03:25;;;;;;;5.28;3.40;;;;;;;;;;6287235;22;20006;-49
2023/09/14 05:05:52;;;;;;;5.35;3.47;;;;;;;;;;6287845;22;19988;-50
2023/09/14 05:08:19;;;;;;;6.15;3.83;;;;;;;;;;6285519;22;20179;-50
2023/09/14 05:10:49;;;;;;;6.40;3.67;;;;;;;;;;6286986;22;20052;-59
2023/09/14 05:13:15;;;;;;;50.97;6.55;;;;;;;;;;6286956;22;19995;-57
2023/09/14 05:15:42;;;;;;;66.90;7.28;;;;;;;;;;6287500;22;20014;-57
2023/09/14 05:18:09;;;;;;;23.80;4.80;;;;;;;;;;6285845;22;20299;-49
2023/09/14 05:20:35;;;;;;;13.20;3.97;;;;;;;;;;6286928;22;19991;-47
2023/09/14 05:23:02;;;;;;;15.52;4.22;;;;;;;;;;6286040;22;19996;-50
2023/09/14 05:25:29;;;;;;;9.38;3.70;;;;;;;;;;6287270;22;20206;-51
2023/09/14 05:27:55;;;;;;;10.30;3.42;;;;;;;;;;6287566;22;19992;-57
2023/09/14 05:30:24;;;;;;;5.90;3.78;;;;;;;;;;6287198;22;20004;-50
2023/09/14 05:32:51;;;;;;;5.55;3.00;;;;;;;;;;6287097;22;20098;-50
2023/09/14 05:35:18;;;;;;;7.47;2.90;;;;;;;;;;6286342;22;20003;-49
2023/09/14 05:37:46;;;;;;;4.35;3.15;;;;;;;;;;6287262;22;20000;-48
2023/09/14 05:40:14;;;;;;;5.90;3.47;;;;;;;;;;6286186;22;20011;-48
2023/09/14 05:42:41;;;;;;;5.70;3.47;;;;;;;;;;6285870;22;19992;-51
2023/09/14 05:45:09;;;;;;;7.68;3.42;;;;;;;;;;6287054;22;20197;-49
2023/09/14 05:47:36;;;;;;;6.85;3.58;;;;;;;;;;6287078;22;20000;-47
2023/09/14 05:50:06;;;;;;;4.65;3.40;;;;;;;;;;6285693;22;20037;-47
2023/09/14 05:52:32;;;;;;;5.50;3.15;;;;;;;;;;6287274;22;20187;-51
2023/09/14 05:54:59;;;;;;;11.70;3.60;;;;;;;;;;6286825;22;20006;-48
2023/09/14 05:57:26;;;;;;;5.60;3.00;;;;;;;;;;6285607;22;20354;-48
2023/09/14 05:59:53;;;;;;;3.83;2.92;;;;;;;;;;6286979;22;20045;-49
2023/09/14 06:02:19;;;;;;;5.03;2.60;;;;;;;;;;6287018;22;19999;-48
2023/09/14 06:04:47;;;;;;;9.30;6.40;;;;;;;;;;6286954;22;19996;-49
2023/09/14 06:07:14;;;;;;;11.40;8.23;;;;;;;;;;6287523;22;20039;-47
2023/09/14 06:09:40;;;;;;;11.10;7.07;;;;;;;;;;6286905;22;20049;-44
2023/09/14 06:12:07;;;;;;;10.25;7.72;;;;;;;;;;6287420;22;19996;-45
2023/09/14 06:14:34;;;;;;;5.07;4.15;;;;;;;;;;6287190;22;20053;-45
2023/09/14 06:17:02;;;;;;;5.88;3.22;;;;;;;;;;6287219;22;20010;-46
2023/09/14 06:19:28;;;;;;;4.95;3.17;;;;;;;;;;6286987;22;20002;-47
2023/09/14 06:21:55;;;;;;;7.43;3.50;;;;;;;;;;6287340;22;19991;-52
2023/09/14 06:24:22;;;;;;;7.82;5.80;;;;;;;;;;6286641;22;20063;-51
2023/09/14 06:26:49;;;;;;;11.00;7.50;;;;;;;;;;6287388;22;20019;-48
2023/09/14 06:29:16;;;;;;;8.63;6.65;;;;;;;;;;6286805;22;20287;-45
2023/09/14 06:31:43;;;;;;;9.82;8.52;;;;;;;;;;6287111;22;20183;-50
2023/09/14 06:34:10;;;;;;;11.38;9.50;;;;;;;;;;6285647;22;20377;-51
2023/09/14 06:36:37;;;;;;;9.75;8.18;;;;;;;;;;6286068;22;19991;-51
2023/09/14 06:39:03;;;;;;;9.10;5.47;;;;;;;;;;6286085;22;20063;-50
2023/09/14 06:41:30;;;;;;;6.38;4.38;;;;;;;;;;6286127;22;20337;-45
2023/09/14 06:43:57;;;;;;;5.57;3.90;;;;;;;;;;6286033;22;20172;-50
2023/09/14 06:46:23;;;;;;;6.43;4.07;;;;;;;;;;6286319;22;20349;-45
2023/09/14 06:48:50;;;;;;;5.95;4.10;;;;;;;;;;6286385;22;19996;-49
2023/09/14 06:51:16;;;;;;;6.05;3.88;;;;;;;;;;6286018;22;19987;-49
2023/09/14 06:53:43;;;;;;;6.05;3.72;;;;;;;;;;6286919;22;20191;-45
2023/09/14 06:56:11;;;;;;;7.15;4.05;;;;;;;;;;6285659;22;20051;-52
2023/09/14 06:58:37;;;;;;;6.95;3.45;;;;;;;;;;6287418;22;20011;-57
2023/09/14 07:01:05;;;;;;;8.00;3.45;;;;;;;;;;6287698;22;20019;-47
2023/09/14 07:03:35;;;;;;;5.45;3.53;;;;;;;;;;6287773;22;20330;-50
2023/09/14 07:06:02;;;;;;;5.07;3.50;;;;;;;;;;6287647;22;19988;-51
2023/09/14 07:08:29;;;;;;;6.43;3.38;;;;;;;;;;6287342;22;20000;-51
2023/09/14 07:10:56;;;;;;;5.78;3.35;;;;;;;;;;6286898;22;19995;-49
2023/09/14 07:13:22;;;;;;;5.20;3.45;;;;;;;;;;6288305;22;20033;-47
2023/09/14 07:15:49;;;;;;;5.50;3.60;;;;;;;;;;6288679;22;20006;-45
2023/09/14 07:18:26;;;;;;;4.00;3.35;;;;;;;;;;6287655;22;19995;-49
2023/09/14 07:20:53;;;;;;;5.13;2.92;;;;;;;;;;6287634;22;20004;-47
2023/09/14 07:23:20;;;;;;;6.47;3.15;;;;;;;;;;6286050;22;20004;-51
2023/09/14 07:25:48;;;;;;;4.55;3.10;;;;;;;;;;6288641;22;19992;-54
2023/09/14 07:28:15;;;;;;;4.53;3.22;;;;;;;;;;6288084;22;20004;-48
2023/09/14 07:30:42;;;;;;;4.35;3.00;;;;;;;;;;6287255;22;20011;-48
2023/09/14 07:33:11;;;;;;;3.55;2.92;;;;;;;;;;6285806;22;19995;-51
2023/09/14 07:35:37;;;;;;;3.67;2.83;;;;;;;;;;6287299;22;20045;-49
2023/09/14 07:38:04;;;;;;;6.32;3.90;;;;;;;;;;6286797;22;20014;-49
2023/09/14 07:40:31;;;;;;;6.25;3.90;;;;;;;;;;6287675;22;19992;-45
2023/09/14 07:42:58;;;;;;;6.72;3.78;;;;;;;;;;6287932;22;20319;-48
2023/09/14 07:45:24;;;;;;;5.45;3.85;;;;;;;;;;6287844;22;20050;-51
2023/09/14 07:47:51;;;;;;;6.78;4.22;;;;;;;;;;6288363;22;20041;-46
2023/09/14 07:50:18;;;;;;;6.68;4.20;;;;;;;;;;6286759;22;20000;-44
2023/09/14 07:52:44;;;;;;;5.50;3.33;;;;;;;;;;6286765;22;20180;-48
2023/09/14 07:55:11;;;;;;;5.28;3.45;;;;;;;;;;6287349;22;20055;-45
2023/09/14 07:57:38;;;;;;;4.47;3.17;;;;;;;;;;6287994;22;20169;-46
2023/09/14 08:00:04;;;;;;;6.57;3.45;;;;;;;;;;6285948;22;20004;-52
2023/09/14 08:02:33;;;;;;;6.10;3.13;;;;;;;;;;6288021;22;20019;-49
2023/09/14 08:05:00;;;;;;;6.40;3.42;;;;;;;;;;6288325;22;20047;-44
2023/09/14 08:07:27;;;;;;;5.53;3.42;;;;;;;;;;6286162;22;20011;-53
2023/09/14 08:09:53;;;;;;;6.15;3.88;;;;;;;;;;6285887;22;20014;-45
2023/09/14 08:12:20;;;;;;;6.70;3.80;;;;;;;;;;6287320;22;20019;-47
2023/09/14 08:14:47;;;;;;;5.15;3.78;;;;;;;;;;6288120;22;20034;-48
2023/09/14 08:17:13;;;;;;;13.32;4.32;;;;;;;;;;6288073;22;19999;-52
2023/09/14 08:19:40;;;;;;;8.95;4.90;;;;;;;;;;6287564;22;20034;-47
2023/09/14 08:22:07;;;;;;;6.60;4.40;;;;;;;;;;6287825;22;20179;-47
2023/09/14 08:24:33;;;;;;;8.93;4.72;;;;;;;;;;6286861;22;19988;-50
2023/09/14 08:27:00;;;;;;;10.52;5.32;;;;;;;;;;6286843;22;20006;-57
2023/09/14 08:29:27;;;;;;;12.10;5.47;;;;;;;;;;6286799;22;20062;-54
2023/09/14 08:31:53;;;;;;;10.60;5.65;;;;;;;;;;6286595;22;20041;-48
2023/09/14 08:34:20;;;;;;;8.90;5.03;;;;;;;;;;6287033;22;20199;-46
2023/09/14 08:36:46;;;;;;;11.18;5.30;;;;;;;;;;6287691;22;20004;-49
2023/09/14 08:39:13;;;;;;;8.85;5.35;;;;;;;;;;6286238;22;19996;-54
2023/09/14 08:41:41;;;;;;;11.80;4.30;;;;;;;;;;6288322;22;20176;-51
2023/09/14 08:44:08;;;;;;;10.10;5.00;;;;;;;;;;6285925;22;20003;-50
2023/09/14 08:46:35;;;;;;;5.82;4.47;;;;;;;;;;6287277;22;19987;-46
2023/09/14 08:49:03;;;;;;;6.53;4.10;;;;;;;;;;6286904;22;20026;-52
2023/09/14 08:51:33;;;;;;;10.10;4.10;;;;;;;;;;6287163;22;20011;-50
2023/09/14 08:54:00;;;;;;;25.33;4.85;;;;;;;;;;6287023;22;20227;-46
2023/09/14 08:56:27;;;;;;;12.80;4.82;;;;;;;;;;6288187;22;20000;-47
2023/09/14 08:58:55;;;;;;;42.75;7.03;;;;;;;;;;6285379;22;20007;-53
2023/09/14 09:01:22;;;;;;;101.40;14.55;;;;;;;;;;6287472;22;20034;-47
2023/09/14 09:03:49;;;;;;;93.95;12.80;;;;;;;;;;6284996;22;20004;-51
2023/09/14 09:06:17;;;;;;;55.72;9.18;;;;;;;;;;6287411;22;20038;-44
2023/09/14 09:08:44;;;;;;;25.15;5.43;;;;;;;;;;6286445;22;19992;-47
2023/09/14 09:11:11;;;;;;;40.45;7.07;;;;;;;;;;6287146;22;19996;-52
2023/09/14 09:13:42;;;;;;;44.25;8.00;;;;;;;;;;6286289;22;20011;-45
2023/09/14 09:16:12;;;;;;;93.82;13.15;;;;;;;;;;6286643;22;19992;-49
2023/09/14 09:18:56;;;;;;;151.65;17.88;;;;;;;;;;6287427;22;20325;-48
2023/09/14 09:21:30;;;;;;;145.02;18.73;;;;;;;;;;6286399;22;20012;-51
2023/09/14 09:23:57;;;;;;;92.00;12.65;;;;;;;;;;6285222;22;20053;-51
2023/09/14 09:26:25;;;;;;;56.95;8.63;;;;;;;;;;6286241;22;20000;-48
2023/09/14 09:28:52;;;;;;;35.72;6.13;;;;;;;;;;6287402;22;19995;-53
2023/09/14 09:31:18;;;;;;;22.25;5.78;;;;;;;;;;6286008;22;20028;-44
2023/09/14 09:33:47;;;;;;;36.08;4.75;;;;;;;;;;6287226;22;20199;-48
2023/09/14 09:36:18;;;;;;;18.00;4.82;;;;;;;;;;6287655;22;20380;-44
2023/09/14 09:38:45;;;;;;;11.82;4.32;;;;;;;;;;6286556;22;20169;-51
2023/09/14 09:41:12;;;;;;;16.27;4.47;;;;;;;;;;6287287;22;20011;-47
2023/09/14 09:43:40;;;;;;;12.20;3.70;;;;;;;;;;6286567;22;20225;-45
2023/09/14 09:46:16;;;;;;;9.82;3.67;;;;;;;;;;6286150;22;20303;-49
2023/09/14 09:48:44;;;;;;;8.65;3.40;;;;;;;;;;6285748;22;20004;-49
2023/09/14 09:51:10;;;;;;;16.77;3.92;;;;;;;;;;6287496;22;20272;-47
2023/09/14 09:53:37;;;;;;;8.57;3.80;;;;;;;;;;6286688;22;20004;-47
2023/09/14 09:56:04;;;;;;;16.45;4.95;;;;;;;;;;6286962;22;20010;-44
2023/09/14 09:58:37;;;;;;;13.85;4.82;;;;;;;;;;6287301;22;20023;-49
2023/09/14 10:01:04;;;;;;;11.27;4.80;;;;;;;;;;6287421;22;20050;-51
2023/09/14 10:03:31;;;;;;;15.85;5.80;;;;;;;;;;6286992;22;19999;-53
2023/09/14 10:05:58;;;;;;;15.85;6.47;;;;;;;;;;6287417;22;20000;-52
2023/09/14 10:08:24;;;;;;;21.60;6.93;;;;;;;;;;6287182;22;20310;-54
2023/09/14 10:10:52;;;;;;;24.92;7.05;;;;;;;;;;6287151;22;20000;-51
2023/09/14 10:13:22;;;;;;;19.20;6.97;;;;;;;;;;6287078;22;20142;-50
2023/09/14 10:15:53;;;;;;;20.95;6.88;;;;;;;;;;6287055;22;19992;-55
2023/09/14 10:18:22;;;;;;;17.15;6.35;;;;;;;;;;6286971;22;20018;-50
2023/09/14 10:20:52;;;;;;;14.88;5.80;;;;;;;;;;6286814;22;20011;-49
2023/09/14 10:23:22;;;;;;;19.70;6.00;;;;;;;;;;6286841;22;19998;-50
2023/09/14 10:25:50;;;;;;;21.98;6.47;;;;;;;;;;6287279;22;19996;-47
2023/09/14 10:28:17;;;;;;;16.83;6.20;;;;;;;;;;6286869;22;20004;-49
2023/09/14 10:30:45;;;;;;;14.05;6.18;;;;;;;;;;6286342;22;20185;-49
2023/09/14 10:33:14;;;;;;;13.35;5.45;;;;;;;;;;6286247;22;20011;-48
2023/09/14 10:35:41;;;;;;;15.02;5.15;;;;;;;;;;6286562;22;20191;-48
2023/09/14 10:38:08;;;;;;;12.70;5.03;;;;;;;;;;6286315;22;20003;-46
2023/09/14 10:40:38;;;;;;;21.17;6.32;;;;;;;;;;6287346;22;20268;-49
2023/09/14 10:43:06;;;;;;;11.00;5.28;;;;;;;;;;6286726;22;20283;-49
2023/09/14 10:45:36;;;;;;;13.10;4.30;;;;;;;;;;6287051;22;19987;-47
2023/09/14 10:48:05;;;;;;;11.02;5.05;;;;;;;;;;6286945;22;20007;-51
2023/09/14 10:50:32;;;;;;;15.93;4.70;;;;;;;;;;6287056;22;20010;-49
2023/09/14 10:52:59;;;;;;;16.17;4.75;;;;;;;;;;6286521;22;20003;-54
2023/09/14 10:55:26;;;;;;;15.93;5.28;;;;;;;;;;6286671;22;20000;-50
2023/09/14 10:57:52;;;;;;;10.02;5.18;;;;;;;;;;6286544;22;20008;-52
2023/09/14 11:00:46;;;;;;;20.02;5.53;;;;;;;;;;6286465;22;20280;-48
2023/09/14 11:03:13;;;;;;;11.55;5.40;;;;;;;;;;6270822;22;20011;-49
2023/09/14 11:05:41;;;;;;;9.88;4.63;;;;;;;;;;6286484;22;20006;-49
2023/09/14 11:08:08;;;;;;;8.77;4.82;;;;;;;;;;6286862;22;19991;-49
2023/09/14 11:10:37;;;;;;;8.30;4.28;;;;;;;;;;6259718;22;20042;-55
2023/09/14 11:13:22;;;;;;;9.30;3.83;;;;;;;;;;6286781;22;20016;-58
2023/09/14 11:15:56;;;;;;;11.55;4.72;;;;;;;;;;6285719;22;20022;-57
2023/09/14 11:18:43;;;;;;;10.23;5.13;;;;;;;;;;6284816;22;20361;-58
2023/09/14 11:21:28;;;;;;;11.10;4.55;;;;;;;;;;6259674;22;20011;-58
2023/09/14 11:23:57;;;;;;;7.88;3.95;;;;;;;;;;6284782;22;20003;-60
2023/09/14 11:26:33;;;;;;;9.25;4.20;;;;;;;;;;6285441;22;20295;-61
2023/09/14 11:29:01;;;;;;;8.43;4.25;;;;;;;;;;6285713;22;20030;-62
2023/09/14 11:31:31;;;;;;;9.13;4.47;;;;;;;;;;6286553;22;20007;-61
2023/09/14 11:33:58;;;;;;;8.57;4.45;;;;;;;;;;6286093;22;20339;-60
2023/09/14 11:36:28;;;;;;;5.82;4.15;;;;;;;;;;6286863;22;20019;-61
2023/09/14 11:38:55;;;;;;;6.32;4.03;;;;;;;;;;6286655;22;20011;-61
2023/09/14 11:41:40;;;;;;;8.38;4.07;;;;;;;;;;6286812;22;20045;-63
2023/09/14 11:44:07;;;;;;;4.40;3.72;;;;;;;;;;6287360;22;20003;-63
2023/09/14 11:46:37;;;;;;;8.10;3.90;;;;;;;;;;6288662;22;20004;-63
2023/09/14 11:49:04;;;;;;;5.78;3.80;;;;;;;;;;6288438;22;20042;-63
2023/09/14 11:51:31;;;;;;;9.82;3.10;;;;;;;;;;6288833;22;20016;-62
2023/09/14 11:53:59;;;;;;;7.63;4.82;;;;;;;;;;6288180;22;20311;-61
2023/09/14 11:56:27;;;;;;;5.13;3.80;;;;;;;;;;6288871;22;20048;-62
2023/09/14 11:58:58;;;;;;;7.38;3.92;;;;;;;;;;6288329;22;20007;-60
2023/09/14 12:01:26;;;;;;;4.72;3.45;;;;;;;;;;6288541;22;20180;-60
2023/09/14 12:03:53;;;;;;;5.70;3.40;;;;;;;;;;6288373;22;19999;-61
2023/09/14 12:06:20;;;;;;;6.85;3.63;;;;;;;;;;6288532;22;20024;-61
2023/09/14 12:08:50;;;;;;;6.18;3.55;;;;;;;;;;6287917;22;20067;-64
2023/09/14 12:11:18;;;;;;;9.27;3.38;;;;;;;;;;6288466;22;20153;-64
2023/09/14 12:13:55;;;;;;;10.05;3.42;;;;;;;;;;6288157;22;20003;-60
2023/09/14 12:16:23;;;;;;;7.30;3.42;;;;;;;;;;6288610;22;20000;-61
2023/09/14 12:18:50;;;;;;;8.52;3.22;;;;;;;;;;6288035;22;20019;-61
2023/09/14 12:21:18;;;;;;;5.65;3.67;;;;;;;;;;6288165;22;20000;-61
2023/09/14 12:23:49;;;;;;;9.00;3.90;;;;;;;;;;6288113;22;20009;-61
2023/09/14 12:26:20;;;;;;;8.55;4.63;;;;;;;;;;6288640;22;19999;-61
2023/09/14 12:28:48;;;;;;;4.68;3.78;;;;;;;;;;6287793;22;20007;-61
2023/09/14 12:31:15;;;;;;;8.05;4.28;;;;;;;;;;6288183;22;20000;-63
2023/09/14 12:33:42;;;;;;;6.72;4.00;;;;;;;;;;6287938;22;20042;-63
2023/09/14 12:36:11;;;;;;;6.95;3.70;;;;;;;;;;6288083;22;19996;-61
2023/09/14 12:38:38;;;;;;;8.63;3.40;;;;;;;;;;6261486;22;19995;-61
2023/09/14 12:41:05;;;;;;;6.80;3.50;;;;;;;;;;6288133;22;20000;-62
2023/09/14 12:43:33;;;;;;;7.10;3.22;;;;;;;;;;6288108;22;19996;-61
2023/09/14 12:46:00;;;;;;;8.25;3.22;;;;;;;;;;6287608;22;20188;-61
2023/09/14 12:48:27;;;;;;;9.25;5.18;;;;;;;;;;6288072;22;20050;-61
2023/09/14 12:50:54;;;;;;;28.48;19.08;;;;;;;;;;6287682;22;20008;-62
2023/09/14 12:53:21;;;;;;;21.67;15.18;;;;;;;;;;6287598;22;20015;-61
2023/09/14 12:55:48;;;;;;;19.85;12.35;;;;;;;;;;6287941;22;20012;-61
2023/09/14 12:58:21;;;;;;;12.68;8.40;;;;;;;;;;6287489;22;20000;-63
2023/09/14 13:00:54;;;;;;;13.43;8.23;;;;;;;;;;6287311;22;20006;-63
2023/09/14 13:03:20;;;;;;;19.13;7.15;;;;;;;;;;6287318;22;20231;-60
2023/09/14 13:05:47;;;;;;;8.95;6.78;;;;;;;;;;6287860;22;20264;-60
2023/09/14 13:08:15;;;;;;;9.63;6.10;;;;;;;;;;6287409;22;19995;-61
2023/09/14 13:10:43;;;;;;;8.30;5.07;;;;;;;;;;6287555;22;20279;-60
2023/09/14 13:13:11;;;;;;;9.57;4.95;;;;;;;;;;6287387;22;20019;-61
2023/09/14 13:15:39;;;;;;;7.78;4.75;;;;;;;;;;6287794;22;19999;-60
2023/09/14 13:18:07;;;;;;;7.68;4.07;;;;;;;;;;6287198;22;20003;-60
2023/09/14 13:20:35;;;;;;;5.25;3.28;;;;;;;;;;6287590;22;20268;-60
2023/09/14 13:23:03;;;;;;;5.05;3.50;;;;;;;;;;6287466;22;20086;-60
2023/09/14 13:25:31;;;;;;;4.65;3.05;;;;;;;;;;6287427;22;20026;-63
2023/09/14 13:28:01;;;;;;;6.68;3.42;;;;;;;;;;6287279;22;20280;-59
2023/09/14 13:30:28;;;;;;;4.15;3.00;;;;;;;;;;6286968;22;20067;-60
2023/09/14 13:32:58;;;;;;;4.80;2.63;;;;;;;;;;6287215;22;19999;-59
2023/09/14 13:35:25;;;;;;;4.13;2.60;;;;;;;;;;6287252;22;20000;-63
2023/09/14 13:37:52;;;;;;;3.85;2.40;;;;;;;;;;6287588;22;20038;-63
2023/09/14 13:40:20;;;;;;;4.32;2.75;;;;;;;;;;6260236;22;20101;-62
2023/09/14 13:42:50;;;;;;;6.10;2.50;;;;;;;;;;6287425;22;20280;-62
2023/09/14 13:45:17;;;;;;;5.15;3.55;;;;;;;;;;6287332;22;20156;-62
2023/09/14 13:47:46;;;;;;;9.55;5.78;;;;;;;;;;6287523;22;20002;-62
2023/09/14 13:50:13;;;;;;;4.82;4.30;;;;;;;;;;6287258;22;20012;-62
2023/09/14 13:52:40;;;;;;;6.00;3.60;;;;;;;;;;6287041;22;19999;-62
2023/09/14 13:55:07;;;;;;;13.52;4.03;;;;;;;;;;6287127;22;20311;-62
2023/09/14 13:57:35;;;;;;;8.88;3.60;;;;;;;;;;6286977;22;20229;-63
2023/09/14 14:00:10;;;;;;;6.82;3.28;;;;;;;;;;6286855;22;20046;-63
2023/09/14 14:02:47;;;;;;;6.57;3.30;;;;;;;;;;6286969;22;20000;-63
2023/09/14 14:05:15;;;;;;;12.15;6.65;;;;;;;;;;6287229;22;20000;-64
2023/09/14 14:07:42;;;;;;;6.20;5.53;;;;;;;;;;6286604;22;20330;-63
2023/09/14 14:10:09;;;;;;;6.40;5.35;;;;;;;;;;6287079;22;19991;-63
2023/09/14 14:12:37;;;;;;;5.10;3.95;;;;;;;;;;6287140;22;20015;-63
2023/09/14 14:15:04;;;;;;;7.80;4.50;;;;;;;;;;6286594;22;20053;-62
2023/09/14 14:17:31;;;;;;;4.57;3.75;;;;;;;;;;6287279;22;19995;-62
2023/09/14 14:19:58;;;;;;;7.95;4.40;;;;;;;;;;6287201;22;20039;-61
2023/09/14 14:22:24;;;;;;;10.52;5.28;;;;;;;;;;6286826;22;20292;-59
2023/09/14 14:24:51;;;;;;;4.32;3.90;;;;;;;;;;6287399;22;19992;-60
2023/09/14 14:27:18;;;;;;;6.43;3.40;;;;;;;;;;6286787;22;20007;-62
2023/09/14 14:29:45;;;;;;;6.90;3.60;;;;;;;;;;6286389;22;20018;-63
2023/09/14 14:32:15;;;;;;;3.53;3.10;;;;;;;;;;6287343;22;20004;-63
2023/09/14 14:34:41;;;;;;;5.13;3.22;;;;;;;;;;6286825;22;19996;-61
2023/09/14 14:37:08;;;;;;;5.75;2.97;;;;;;;;;;6287286;22;20295;-61
2023/09/14 14:39:36;;;;;;;4.53;2.65;;;;;;;;;;6286896;22;20287;-60